Terminal Aerodrome Forecast
Issued by NWS

Home | Current Version | Previous Version | Text Only | Print | Product List | Glossary On
Versions: 1 2 3 4 5 6 7 8 9 10 11 12 13 14 15
000
FTUS42 TJSJ 251128
TAFJBQ
TAF
TJBQ 251128Z 2512/2612 12006KT P6SM FEW025
     FM251300 09012KT P6SM FEW025 SCT070
     FM251600 08015G22KT P6SM SHRA VCTS SCT025CB BKN030
     FM252200 09008KT P6SM FEW025 SCT050 SCT100=

USA.gov is the U.S. government's official web portal to all federal, state and local government web resources and services.